This is the latest recevied weather packets stored in our database for station/object N5PUP-13. If no packets are shown the sender has not sent any weather packets the latest 10 day(s).
| Time | Temp. | Humidity | Pressure | Rain* | Wind** | Luminosity | Snow |
|---|---|---|---|---|---|---|---|
| 1788541800 | 35° C | 45% | 1013.8 hPa | 0 mm | - | - | - |
| 1788541500 | 34.44° C | 47% | 1013.9 hPa | 0 mm | - | - | - |
| 1788541200 | 33.89° C | 47% | 1013.9 hPa | 0 mm | - | - | - |
| 1788540900 | 33.89° C | 47% | 1014 hPa | 0 mm | - | - | - |
| 1788540600 | 33.89° C | 48% | 1014 hPa | 0 mm | - | - | - |
| 1788540300 | 33.89° C | 48% | 1014.1 hPa | 0 mm | - | - | - |
| 1788540000 | 33.89° C | 48% | 1014.1 hPa | 0 mm | - | - | - |
| 1788539700 | 33.33° C | 50% | 1014 hPa | 0 mm | - | - | - |
| 1788539400 | 32.78° C | 51% | 1014 hPa | 0 mm | - | - | - |
| 1788539100 | 32.78° C | 52% | 1014 hPa | 0 mm | - | - | - |
| 1788538800 | 32.78° C | 53% | 1014 hPa | 0 mm | - | - | - |
| 1788538500 | 32.78° C | 53% | 1014 hPa | 0 mm | - | - | - |
| 1788538200 | 31.67° C | 55% | 1014 hPa | 0 mm | - | - | - |
| 1788537900 | 32.22° C | 53% | 1014 hPa | 0 mm | - | - | - |
| 1788537600 | 31.11° C | 56% | 1014 hPa | 0 mm | - | - | - |
| 1788537300 | 31.67° C | 56% | 1014 hPa | 0 mm | - | - | - |
| 1788537000 | 31.11° C | 58% | 1014.1 hPa | 0 mm | - | - | - |
| 1788536700 | 31.11° C | 57% | 1014 hPa | 0 mm | - | - | - |
| 1788536400 | 30.56° C | 59% | 1014.1 hPa | 0 mm | - | - | - |
| 1788536100 | 30.56° C | 59% | 1014.1 hPa | 0 mm | - | - | - |
| 1788535800 | 30° C | 60% | 1014 hPa | 0 mm | - | - | - |
| 1788535500 | 30° C | 61% | 1014 hPa | 0 mm | - | - | - |
| 1788535221 | 30° C | 61% | 1014 hPa | 0 mm | - | - | - |
| 1788534900 | 30° C | 61% | 1013.9 hPa | 0 mm | - | - | - |
| 1788534600 | 30° C | 61% | 1013.9 hPa | 0 mm | - | - | - |
* Rain latest hour (hover to see other rain measurements)
** Current wind speed in m/s (hover to see current wind gust speed)